Aberdeen, SD

2:09 AM CST on February 06, 2016 (GMT -0600)
St. Mary's Church | | Change Station
CLOSE
Current Station
Personal Weather Station
Location: Aberdeen, SD
Elevation: 1302 ft
Nearby Weather Stations
Active Advisory: High Wind Watch Active Notice: Public Information Statement

Elev 1302 ft 45.47 °N, 98.48 °W | Updated 1 second ago

Clear
Clear
23.5 °F
Feels Like 24 °F
N
1.1
Wind Variable Wind from SE
Gusts 4.0 mph

Today
High -- | Low -- °F
--% Chance of Precip.
Yesterday
High -- | Low -- °F
Precip. -- in
Pressure 30.12 in
Visibility 10.0 miles
Clouds Clear
Windchill 24 °F
Dew Point 20 °F
Humidity 88%
Rainfall 0.00 in
Snow Depth Not available.
7:48 AM 5:47 PM
Waning Crescent, 7% visible
METAR KABR 060753Z AUTO 18006KT 10SM CLR M05/M07 A3007 RMK AO2 SLP197 T10501072
Pressure 30.12 in
Visibility 10.0 miles
Clouds Clear
Windchill 24 °F
Dew Point 20 °F
Humidity 88%
Rainfall 0.00 in
Snow Depth Not available.
7:48 AM 5:47 PM
Waning Crescent, 7% visible
METAR KABR 060753Z AUTO 18006KT 10SM CLR M05/M07 A3007 RMK AO2 SLP197 T10501072

10-Day Weather Forecast

Almanac

Astronomy

Feb. 06, 2016 Rise Set
Actual Time
Civil Twilight
Nautical Twilight
Astronomical Twilight
Moon
Length of Visible Light
Length of Day
Tomorrow will be .
, % of the Moon is Illuminated

Today's Extremes

State Highs State Lows

Community

WunderPhotos

Upload Photos

1,890,933 photos uploaded!

WunderBlog® & News

Nearby

Air Quality

  Air Quality AQ Index Pollutant
Not available.

Snow Depth

Station Depth Elevation

Earthquake Activity

City Distance Mag. Time & Date
Minimum magnitude displayed is 2.5.

Coastal Water Temperatures

Place Temperature

Stations

Nearby Weather Stations

Station Location Temp. Windchill Dew Point Humidity Wind Precip. Elev Updated Type
                   

Watches & Warnings

High Wind Watch
Issued: 10:00 PM MST Feb. 5, 2016 – National Weather Service

... High wind watch remains in effect from Sunday morning through
Sunday evening...

* winds... northwest 30 to 45 mph with gusts up to 60 mph
possible.

* Impacts... high profile vehicles will likely be affected.
Strong winds can create flying debris. Gusts over 60 mph can
cause property damage.

Precautionary/preparedness actions...

A high wind watch means there is the potential for a hazardous
high wind event. Sustained winds of at least 40 mph... or gusts of
58 mph or stronger may occur. Continue to monitor the latest
forecasts.